createdAt,value
2023-01-15T00:02:17.916Z,99883.28
2023-01-15T00:07:17.223Z,99884.41
2023-01-15T00:12:10.152Z,99877.75
2023-01-15T00:17:00.750Z,99873.66
2023-01-15T00:21:53.090Z,99891.16
2023-01-15T00:27:01.855Z,99881.75
2023-01-15T00:32:04.503Z,99876.91
2023-01-15T00:37:00.165Z,99884.66
2023-01-15T00:41:54.823Z,99881.47
2023-01-15T00:46:46.432Z,99872.88
2023-01-15T00:51:39.366Z,99894.72
2023-01-15T00:56:33.855Z,99889.06
2023-01-15T01:01:27.844Z,99888.13
2023-01-15T01:06:19.263Z,99899.94
2023-01-15T01:11:10.181Z,99889.53
2023-01-15T01:16:00.065Z,99896.56
2023-01-15T01:20:52.365Z,99883.00
2023-01-15T01:25:47.133Z,99884.91
2023-01-15T01:30:37.884Z,99883.22
2023-01-15T01:35:29.907Z,99897.25
2023-01-15T01:40:22.439Z,99891.91
2023-01-15T01:45:24.955Z,99904.09
2023-01-15T01:50:16.434Z,99900.44
2023-01-15T01:55:09.410Z,99899.63
2023-01-15T02:00:07.441Z,99901.34
2023-01-15T02:05:02.907Z,99887.63
2023-01-15T02:09:53.865Z,99885.88
2023-01-15T02:14:47.653Z,99874.84
2023-01-15T02:20:08.497Z,99872.41
2023-01-15T02:25:25.264Z,99882.47
2023-01-15T02:30:24.192Z,99892.22
2023-01-15T02:35:21.942Z,99886.22
2023-01-15T02:40:18.829Z,99889.50
2023-01-15T02:45:14.723Z,99902.84
2023-01-15T02:50:15.266Z,99886.44
2023-01-15T02:55:11.757Z,99882.13
2023-01-15T03:00:08.413Z,99871.75
2023-01-15T03:05:00.240Z,99880.75
2023-01-15T03:09:53.604Z,99884.09
2023-01-15T03:14:47.354Z,99889.16
2023-01-15T03:19:44.068Z,99885.81
2023-01-15T03:24:43.196Z,99872.66
2023-01-15T03:29:36.610Z,99876.25
2023-01-15T03:34:28.184Z,99877.97
2023-01-15T03:39:19.929Z,99880.22
2023-01-15T03:44:27.957Z,99878.25
2023-01-15T03:49:24.665Z,99865.47
2023-01-15T03:54:20.352Z,99864.47
2023-01-15T03:59:14.920Z,99859.34
2023-01-15T04:04:21.640Z,99865.72
2023-01-15T04:09:15.120Z,99845.84
2023-01-15T04:14:07.481Z,99862.16
2023-01-15T04:19:13.046Z,99866.34
2023-01-15T04:24:15.854Z,99869.88
2023-01-15T04:29:06.650Z,99875.22
2023-01-15T04:33:59.677Z,99858.75
2023-01-15T04:38:50.481Z,99866.66
2023-01-15T04:43:55.395Z,99858.72
2023-01-15T04:48:45.856Z,99876.09
2023-01-15T04:53:35.299Z,99874.19
2023-01-15T04:58:24.825Z,99868.50
2023-01-15T05:03:17.000Z,99857.38
2023-01-15T05:08:07.225Z,99856.25
2023-01-15T05:12:56.761Z,99853.63
2023-01-15T05:17:46.245Z,99862.63
2023-01-15T05:22:38.939Z,99844.47
2023-01-15T05:27:28.664Z,99843.63
2023-01-15T05:32:18.251Z,99838.53
2023-01-15T05:37:08.134Z,99824.59
2023-01-15T05:42:02.745Z,99831.78
2023-01-15T05:46:54.822Z,99843.84
2023-01-15T05:51:44.474Z,99842.75
2023-01-15T05:56:34.882Z,99846.31
2023-01-15T06:01:28.682Z,99873.06
2023-01-15T06:06:19.108Z,99866.69
2023-01-15T06:11:10.347Z,99878.59
2023-01-15T06:16:02.187Z,99871.78
2023-01-15T06:20:56.190Z,99874.56
2023-01-15T06:25:45.745Z,99878.91
2023-01-15T06:30:37.407Z,99881.38
2023-01-15T06:35:28.325Z,99885.84
2023-01-15T06:40:21.743Z,99891.28
2023-01-15T06:45:25.215Z,99906.16
2023-01-15T06:50:18.241Z,99884.50
2023-01-15T06:55:11.817Z,99873.25
2023-01-15T07:00:10.939Z,99885.34
2023-01-15T07:05:06.265Z,99882.13
2023-01-15T07:09:56.250Z,99880.09
2023-01-15T07:14:48.561Z,99878.41
2023-01-15T07:19:41.060Z,99873.22
2023-01-15T07:24:31.011Z,99874.38
2023-01-15T07:29:21.736Z,99862.25
2023-01-15T07:34:15.409Z,99857.03
2023-01-15T07:39:26.220Z,99871.94
2023-01-15T07:44:29.251Z,99872.63
2023-01-15T07:49:33.155Z,99861.53
2023-01-15T07:54:28.539Z,99875.50
2023-01-15T07:59:20.492Z,99878.72
2023-01-15T08:04:10.489Z,99874.50
2023-01-15T08:09:00.537Z,99883.81
2023-01-15T08:14:06.572Z,99877.81
2023-01-15T08:18:56.148Z,99894.50
2023-01-15T08:23:47.007Z,99880.53
2023-01-15T08:28:36.618Z,99889.75
2023-01-15T08:33:28.784Z,99876.97
2023-01-15T08:38:21.173Z,99882.72
2023-01-15T08:43:10.856Z,99895.66
2023-01-15T08:48:01.095Z,99881.91
2023-01-15T08:52:53.660Z,99877.66
2023-01-15T08:57:44.614Z,99882.72
2023-01-15T09:02:34.210Z,99905.19
2023-01-15T09:07:26.680Z,99891.59
2023-01-15T09:12:33.909Z,99888.81
2023-01-15T09:17:30.608Z,99878.34
2023-01-15T09:22:25.944Z,99866.41
2023-01-15T09:27:23.607Z,99862.63
2023-01-15T09:32:18.011Z,99868.75
2023-01-15T09:37:08.727Z,99880.88
2023-01-15T09:42:17.670Z,99895.91
2023-01-15T09:47:20.033Z,99888.31
2023-01-15T09:52:17.308Z,99887.34
2023-01-15T09:57:14.083Z,99905.56
2023-01-15T10:02:08.255Z,99896.50
2023-01-15T10:07:11.153Z,99894.44
2023-01-15T10:12:20.556Z,99906.47
2023-01-15T10:17:22.823Z,99917.31
2023-01-15T10:22:19.988Z,99898.25
2023-01-15T10:27:21.299Z,99901.94
2023-01-15T10:32:21.223Z,99927.44
2023-01-15T10:37:14.922Z,99946.63
2023-01-15T10:42:12.262Z,99931.16
2023-01-15T10:47:08.332Z,99940.72
2023-01-15T10:52:03.665Z,99920.69
2023-01-15T10:57:01.845Z,99913.75
2023-01-15T11:01:54.578Z,99927.06
2023-01-15T11:06:47.373Z,99925.50
2023-01-15T11:12:08.675Z,99920.59
2023-01-15T11:17:12.623Z,99923.41
2023-01-15T11:22:09.969Z,99912.09
2023-01-15T11:26:59.793Z,99937.84
2023-01-15T11:31:49.590Z,99921.53
2023-01-15T11:36:39.637Z,99919.81
2023-01-15T11:41:54.680Z,99900.25
2023-01-15T11:47:05.573Z,99920.53
2023-01-15T11:52:00.868Z,99910.91
2023-01-15T11:56:56.833Z,99910.59
2023-01-15T12:01:54.987Z,99920.66
2023-01-15T12:06:45.218Z,99919.81
2023-01-15T12:11:39.668Z,99904.47
2023-01-15T12:16:38.752Z,99912.84
2023-01-15T12:21:38.441Z,99922.41
2023-01-15T12:26:30.555Z,99904.75
2023-01-15T12:31:26.873Z,99905.63
2023-01-15T12:36:22.450Z,99906.22
2023-01-15T12:41:14.758Z,99921.03
2023-01-15T12:46:07.639Z,99906.88
2023-01-15T12:51:00.080Z,99908.41
2023-01-15T12:55:57.680Z,99906.16
2023-01-15T13:00:51.563Z,99903.78
2023-01-15T13:05:46.456Z,99900.56
2023-01-15T13:10:40.500Z,99903.19
2023-01-15T13:15:38.085Z,99904.72
2023-01-15T13:20:46.871Z,99912.41
2023-01-15T13:26:07.813Z,99922.94
2023-01-15T13:31:10.612Z,99917.00
2023-01-15T13:36:13.506Z,99928.56
2023-01-15T13:41:03.277Z,99933.31
2023-01-15T13:45:53.812Z,99931.53
2023-01-15T13:50:55.596Z,99926.25
2023-01-15T13:55:46.733Z,99916.88
2023-01-15T14:00:39.071Z,99933.34
2023-01-15T14:05:32.950Z,99926.09
2023-01-15T14:10:45.154Z,99925.09
2023-01-15T14:15:48.431Z,99941.44
2023-01-15T14:20:48.583Z,99938.97
2023-01-15T14:25:56.026Z,99958.06
2023-01-15T14:31:04.725Z,99951.13
2023-01-15T14:35:57.173Z,99963.34
2023-01-15T14:40:55.815Z,99955.56
2023-01-15T14:45:50.414Z,99977.28
2023-01-15T14:50:44.156Z,99950.28
2023-01-15T14:55:39.951Z,99969.47
2023-01-15T15:00:32.961Z,99967.97
2023-01-15T15:05:25.653Z,99960.94
2023-01-15T15:10:24.276Z,99981.78
2023-01-15T15:15:22.289Z,99969.53
2023-01-15T15:20:29.663Z,99991.59
2023-01-15T15:25:25.957Z,99985.56
2023-01-15T15:30:17.267Z,100002.88
2023-01-15T15:35:07.649Z,99975.19
2023-01-15T15:40:01.169Z,99985.94
2023-01-15T15:45:09.047Z,99978.75
2023-01-15T15:50:02.977Z,99980.78
2023-01-15T15:55:02.880Z,99985.03
2023-01-15T15:59:56.701Z,99992.03
2023-01-15T16:04:49.930Z,99991.13
2023-01-15T16:09:42.691Z,99996.47
2023-01-15T16:14:37.067Z,99991.13
2023-01-15T16:19:29.500Z,99993.16
2023-01-15T16:24:35.620Z,99998.97
2023-01-15T16:29:28.877Z,99994.88
2023-01-15T16:40:25.480Z,100011.44
2023-01-15T16:45:22.828Z,100010.47
2023-01-15T16:50:32.067Z,100008.66
2023-01-15T16:55:40.519Z,100018.25
2023-01-15T17:00:33.761Z,100010.56
2023-01-15T17:05:33.633Z,100022.63
2023-01-15T17:10:27.028Z,100021.00
2023-01-15T17:15:31.741Z,100022.75
2023-01-15T17:20:29.582Z,100023.66
2023-01-15T17:25:27.581Z,100018.59
2023-01-15T17:30:22.760Z,100022.81
2023-01-15T17:35:22.260Z,100019.34
2023-01-15T17:40:18.571Z,100010.78
2023-01-15T17:45:22.770Z,100007.00
2023-01-15T17:50:14.894Z,100015.13
2023-01-15T17:55:19.131Z,99998.50
2023-01-15T18:00:26.851Z,100006.22
2023-01-15T18:05:33.545Z,100009.25
2023-01-15T18:10:25.284Z,100012.66
2023-01-15T18:15:26.198Z,100009.16
2023-01-15T18:20:17.408Z,100015.31
2023-01-15T18:25:10.977Z,100004.16
2023-01-15T18:30:07.320Z,100004.28
2023-01-15T18:34:59.772Z,100000.88
2023-01-15T18:39:49.484Z,100003.41
2023-01-15T18:44:52.792Z,99994.84
2023-01-15T18:49:47.767Z,99979.34
2023-01-15T18:54:43.356Z,99977.78
2023-01-15T18:59:37.939Z,99981.22
2023-01-15T19:04:29.716Z,99980.34
2023-01-15T19:09:26.689Z,99979.44
2023-01-15T19:14:35.276Z,99994.03
2023-01-15T19:19:28.428Z,99973.50
2023-01-15T19:24:23.290Z,99978.69
2023-01-15T19:29:15.134Z,99958.91
2023-01-15T19:34:33.092Z,99955.41
2023-01-15T19:39:27.837Z,99945.97
2023-01-15T19:44:31.782Z,99946.75
2023-01-15T19:49:40.429Z,99939.13
2023-01-15T19:54:43.830Z,99937.34
2023-01-15T19:59:36.829Z,99932.97
2023-01-15T20:04:32.064Z,99913.25
2023-01-15T20:09:23.137Z,99911.47
2023-01-15T20:14:14.079Z,99908.03
2023-01-15T20:19:04.879Z,99890.84
2023-01-15T20:23:57.590Z,99881.41
2023-01-15T20:28:48.923Z,99857.25
2023-01-15T20:33:42.667Z,99846.91
2023-01-15T20:38:35.417Z,99839.16
2023-01-15T20:43:44.648Z,99829.69
2023-01-15T20:48:56.190Z,99822.00
2023-01-15T20:53:46.470Z,99803.91
2023-01-15T20:58:41.767Z,99799.53
2023-01-15T21:03:37.884Z,99790.03
2023-01-15T21:08:39.031Z,99786.72
2023-01-15T21:13:48.069Z,99788.34
2023-01-15T21:19:01.268Z,99778.03
2023-01-15T21:23:50.795Z,99775.38
2023-01-15T21:28:43.573Z,99765.03
2023-01-15T21:33:41.723Z,99759.88
2023-01-15T21:38:52.444Z,99748.69
2023-01-15T21:44:00.083Z,99740.94
2023-01-15T21:48:51.247Z,99729.72
2023-01-15T21:53:41.118Z,99733.09
2023-01-15T21:58:30.981Z,99722.69
2023-01-15T22:03:26.060Z,99710.66
2023-01-15T22:08:41.999Z,99716.75
2023-01-15T22:13:34.747Z,99702.06
2023-01-15T22:18:31.323Z,99697.06
2023-01-15T22:23:26.026Z,99695.38
2023-01-15T22:28:21.716Z,99685.13
2023-01-15T22:33:12.712Z,99686.94
2023-01-15T22:38:08.432Z,99680.91
2023-01-15T22:43:04.002Z,99681.91
2023-01-15T22:48:00.126Z,99679.25
2023-01-15T22:52:57.949Z,99669.88
2023-01-15T22:57:51.528Z,99669.94
2023-01-15T23:02:55.497Z,99656.19
2023-01-15T23:07:47.898Z,99653.63
2023-01-15T23:12:40.146Z,99639.03
2023-01-15T23:17:36.032Z,99639.03
2023-01-15T23:22:27.450Z,99634.78
2023-01-15T23:27:22.701Z,99634.69
2023-01-15T23:32:21.421Z,99630.53
2023-01-15T23:37:15.256Z,99626.09
2023-01-15T23:42:17.565Z,99612.34
2023-01-15T23:47:10.510Z,99608.94
2023-01-15T23:52:03.688Z,99601.28
2023-01-15T23:56:57.188Z,99594.38
